Time;durP1;ratioP1;P1;durP2;ratioP2;P2;SDS_P1;SDS_P2;PMS_P1;PMS_P2;Temp;Humidity;BMP_temperature;BMP_pressure;BME280_temperature;BME280_humidity;BME280_pressure;Samples;Min_cycle;Max_cycle;Signal;HPM_P1;HPM_P2
2021/04/12 00:00:16;;;;;;;4.43;1.90;;;25.50;39.00;;;;;;5063252;28;20036;-58
2021/04/12 00:02:45;;;;;;;4.22;1.80;;;25.40;38.90;;;;;;5059786;28;20032;-57
2021/04/12 00:05:14;;;;;;;3.42;1.83;;;25.40;38.90;;;;;;5064657;28;20037;-59
2021/04/12 00:08:01;;;;;;;4.03;1.50;;;25.50;39.00;;;;;;5064183;28;20032;-60
2021/04/12 00:10:32;;;;;;;5.32;2.22;;;25.40;38.90;;;;;;5065980;28;20035;-60
2021/04/12 00:13:02;;;;;;;4.13;1.60;;;25.40;38.90;;;;;;5065178;28;20094;-59
2021/04/12 00:15:34;;;;;;;3.70;1.58;;;25.50;39.00;;;;;;5060554;28;20041;-58
2021/04/12 00:18:08;;;;;;;3.90;1.63;;;25.40;38.90;;;;;;5064748;28;20032;-58
2021/04/12 00:20:51;;;;;;;3.60;1.70;;;25.40;38.90;;;;;;5067080;28;20083;-58
2021/04/12 00:23:43;;;;;;;3.25;1.63;;;25.40;39.00;;;;;;5065280;28;20375;-59
2021/04/12 00:26:39;;;;;;;3.30;1.50;;;25.40;39.00;;;;;;5059733;28;20396;-59
2021/04/12 00:29:19;;;;;;;3.33;1.50;;;25.40;39.00;;;;;;5037387;28;20041;-59
2021/04/12 00:32:14;;;;;;;4.45;1.60;;;25.40;38.90;;;;;;5047140;28;20462;-58
2021/04/12 00:35:09;;;;;;;3.28;1.58;;;25.40;38.90;;;;;;5062534;28;20055;-60
2021/04/12 00:37:49;;;;;;;3.50;1.67;;;25.40;38.90;;;;;;5055251;28;20045;-54
2021/04/12 00:40:42;;;;;;;2.75;1.42;;;25.40;38.90;;;;;;5065216;28;20424;-60
2021/04/12 00:43:16;;;;;;;2.95;1.45;;;25.40;39.00;;;;;;5063760;28;20038;-60
2021/04/12 00:45:47;;;;;;;3.22;1.60;;;25.40;38.90;;;;;;5063850;28;20044;-59
2021/04/12 00:48:28;;;;;;;2.33;1.30;;;25.40;39.00;;;;;;5054868;28;20055;-58
2021/04/12 00:51:09;;;;;;;3.13;1.63;;;25.40;38.90;;;;;;5062408;28;20032;-59
2021/04/12 00:54:02;;;;;;;3.72;1.65;;;25.40;39.00;;;;;;5060951;28;20107;-58
2021/04/12 00:56:41;;;;;;;3.25;1.30;;;25.40;38.90;;;;;;5061107;28;20021;-59
2021/04/12 00:59:32;;;;;;;3.53;1.50;;;25.40;38.90;;;;;;5065249;28;20339;-60
2021/04/12 01:02:29;;;;;;;3.38;1.60;;;25.40;38.90;;;;;;5060819;28;20235;-60
2021/04/12 01:05:13;;;;;;;2.95;1.40;;;25.40;39.00;;;;;;5058686;28;20487;-58
2021/04/12 01:07:59;;;;;;;3.42;1.60;;;25.30;38.90;;;;;;5068388;28;20112;-59
2021/04/12 01:10:41;;;;;;;2.38;1.17;;;25.40;38.90;;;;;;5061775;28;20059;-58
2021/04/12 01:13:29;;;;;;;2.75;1.35;;;25.30;38.90;;;;;;5062038;28;20036;-60
2021/04/12 01:16:18;;;;;;;2.45;1.30;;;25.30;38.90;;;;;;5061134;28;20060;-60
2021/04/12 01:19:26;;;;;;;2.92;1.65;;;25.30;38.90;;;;;;5061408;28;20039;-60
2021/04/12 01:22:29;;;;;;;3.03;1.60;;;25.30;38.90;;;;;;5061486;28;20036;-58
2021/04/12 01:25:24;;;;;;;2.38;1.30;;;25.30;38.90;;;;;;5056713;28;20093;-60
2021/04/12 01:27:49;;;;;;;3.20;1.40;;;25.30;38.90;;;;;;5060976;28;20380;-57
2021/04/12 01:30:43;;;;;;;2.10;1.20;;;25.30;38.90;;;;;;5063256;28;20028;-60
2021/04/12 01:33:36;;;;;;;2.17;1.20;;;25.30;38.90;;;;;;5059890;28;20593;-57
2021/04/12 01:36:32;;;;;;;3.65;1.77;;;25.30;38.90;;;;;;5062956;28;20024;-58
2021/04/12 01:39:40;;;;;;;3.55;1.50;;;25.30;38.90;;;;;;5063205;28;20044;-58
2021/04/12 01:42:33;;;;;;;2.78;1.25;;;25.30;38.90;;;;;;5059669;28;20040;-55
2021/04/12 01:45:17;;;;;;;3.10;1.50;;;25.30;38.90;;;;;;5053979;28;20042;-60
2021/04/12 01:48:03;;;;;;;2.70;1.52;;;25.30;38.90;;;;;;5055779;28;20067;-60
2021/04/12 01:50:53;;;;;;;2.00;1.20;;;25.20;38.90;;;;;;5062242;28;20036;-60
2021/04/12 01:53:37;;;;;;;3.05;1.30;;;25.30;39.10;;;;;;5055597;28;20035;-59
2021/04/12 01:56:21;;;;;;;2.47;1.13;;;25.20;38.80;;;;;;5062053;28;20463;-58
2021/04/12 01:59:05;;;;;;;2.22;1.27;;;25.20;38.80;;;;;;5061391;28;20032;-59
2021/04/12 02:01:52;;;;;;;2.22;1.23;;;25.30;38.90;;;;;;5058213;28;20040;-58
2021/04/12 02:04:39;;;;;;;2.00;1.15;;;25.20;38.80;;;;;;5060178;28;20100;-57
2021/04/12 02:07:26;;;;;;;2.00;1.20;;;25.30;38.90;;;;;;5059009;28;20497;-60
2021/04/12 02:10:06;;;;;;;2.83;1.35;;;25.20;38.80;;;;;;5053223;28;20070;-58
2021/04/12 02:12:40;;;;;;;2.85;1.20;;;25.20;38.90;;;;;;5060913;28;20101;-59
2021/04/12 02:15:06;;;;;;;2.85;1.38;;;25.20;38.90;;;;;;5060080;28;20028;-56
2021/04/12 02:17:59;;;;;;;2.40;1.20;;;25.20;38.80;;;;;;5059030;28;20067;-57
2021/04/12 02:20:46;;;;;;;2.38;1.30;;;25.20;38.80;;;;;;5061138;28;20395;-56
2021/04/12 02:23:26;;;;;;;3.13;1.40;;;25.20;38.80;;;;;;5055907;28;20557;-59
2021/04/12 02:26:00;;;;;;;2.35;1.05;;;25.20;38.80;;;;;;5057286;28;20043;-56
2021/04/12 02:28:49;;;;;;;1.73;1.08;;;25.20;38.80;;;;;;5059407;28;20050;-56
2021/04/12 02:31:35;;;;;;;2.80;1.45;;;25.20;38.80;;;;;;5061615;28;20081;-56
2021/04/12 02:34:10;;;;;;;2.85;1.30;;;25.20;38.80;;;;;;5062831;28;20032;-57
2021/04/12 02:36:59;;;;;;;3.35;1.30;;;25.20;38.80;;;;;;5055340;28;20496;-56
2021/04/12 02:39:47;;;;;;;2.00;1.10;;;25.20;38.80;;;;;;5053735;28;20206;-54
2021/04/12 02:42:43;;;;;;;1.95;1.20;;;25.20;38.80;;;;;;5059617;28;20035;-57
2021/04/12 02:45:20;;;;;;;2.00;1.10;;;25.20;38.80;;;;;;5055576;28;20040;-57
2021/04/12 02:48:04;;;;;;;2.25;1.10;;;25.20;38.70;;;;;;5045537;28;20524;-58
2021/04/12 02:51:34;;;;;;;1.95;1.00;;;25.20;38.70;;;;;;5045565;28;20051;-57
2021/04/12 02:54:21;;;;;;;1.65;1.00;;;25.20;38.70;;;;;;5020512;28;20097;-55
2021/04/12 02:56:55;;;;;;;1.95;0.98;;;25.10;38.70;;;;;;5014983;28;20033;-57
2021/04/12 02:59:33;;;;;;;2.22;1.13;;;25.20;38.70;;;;;;5053020;28;20912;-56
2021/04/12 03:02:32;;;;;;;2.40;1.15;;;25.20;38.70;;;;;;5048227;28;20036;-56
2021/04/12 03:05:18;;;;;;;2.03;1.10;;;25.10;38.60;;;;;;5060814;28;20588;-58
2021/04/12 03:08:12;;;;;;;2.20;1.05;;;25.20;38.70;;;;;;5065394;28;20060;-58
2021/04/12 03:11:09;;;;;;;1.80;1.05;;;25.10;38.60;;;;;;5062260;28;20248;-56
2021/04/12 03:13:56;;;;;;;1.20;0.80;;;25.10;38.60;;;;;;5052920;28;20028;-57
2021/04/12 03:16:43;;;;;;;2.30;1.05;;;25.10;38.60;;;;;;5054297;28;20040;-59
2021/04/12 03:19:56;;;;;;;2.13;0.95;;;25.10;38.70;;;;;;5057799;28;20046;-57
2021/04/12 03:22:27;;;;;;;1.48;0.88;;;25.10;38.60;;;;;;4996960;28;20041;-56
2021/04/12 03:25:30;;;;;;;1.48;1.00;;;25.10;38.60;;;;;;4993445;28;20034;-57
2021/04/12 03:28:27;;;;;;;2.17;1.10;;;25.10;38.60;;;;;;5036354;28;20037;-55
2021/04/12 03:31:14;;;;;;;1.83;1.00;;;25.10;38.60;;;;;;5056345;28;20055;-59
2021/04/12 03:34:17;;;;;;;2.58;0.90;;;25.10;38.60;;;;;;5057448;28;20411;-56
2021/04/12 03:37:20;;;;;;;2.10;1.10;;;25.10;38.60;;;;;;5060075;28;20032;-54
2021/04/12 03:39:45;;;;;;;2.00;1.20;;;25.10;38.60;;;;;;5061549;28;20529;-58
2021/04/12 03:42:29;;;;;;;1.92;1.08;;;25.10;38.60;;;;;;5059196;28;20036;-58
2021/04/12 03:45:22;;;;;;;1.77;0.90;;;25.10;38.60;;;;;;5060101;28;20029;-59
2021/04/12 03:48:02;;;;;;;1.83;1.00;;;25.10;38.60;;;;;;5049896;28;20131;-60
2021/04/12 03:50:47;;;;;;;1.50;0.90;;;25.10;38.60;;;;;;5058762;28;20130;-58
2021/04/12 03:53:37;;;;;;;1.80;0.90;;;25.10;38.60;;;;;;5058577;28;20040;-59
2021/04/12 03:56:21;;;;;;;1.45;0.90;;;25.10;38.50;;;;;;5060743;28;20037;-55
2021/04/12 03:59:08;;;;;;;2.03;0.93;;;25.10;38.50;;;;;;5059220;28;20283;-55
2021/04/12 04:02:02;;;;;;;1.60;0.80;;;25.10;38.50;;;;;;5052449;28;20047;-57
2021/04/12 04:04:33;;;;;;;1.80;0.90;;;25.00;38.50;;;;;;5057719;28;20062;-55
2021/04/12 04:07:21;;;;;;;1.67;0.85;;;25.00;38.40;;;;;;5062727;28;20088;-58
2021/04/12 04:10:12;;;;;;;1.17;0.80;;;25.00;38.50;;;;;;5061546;28;20035;-58
2021/04/12 04:12:56;;;;;;;1.65;0.90;;;25.00;38.40;;;;;;5061555;28;20081;-59
2021/04/12 04:15:27;;;;;;;1.92;1.05;;;25.00;38.50;;;;;;5062434;28;20448;-54
2021/04/12 04:18:47;;;;;;;1.33;0.80;;;25.00;38.40;;;;;;5063143;28;20104;-56
2021/04/12 04:21:18;;;;;;;;;;;25.00;38.40;;;;;;4954756;28;20614;-58
2021/04/12 04:24:02;;;;;;;2.35;1.00;;;25.00;38.50;;;;;;4950159;28;19914;-57
2021/04/12 04:27:15;;;;;;;1.80;0.80;;;25.00;38.50;;;;;;5011353;28;20052;-56
2021/04/12 04:30:25;;;;;;;1.25;0.60;;;25.00;38.50;;;;;;5035778;28;20105;-59
2021/04/12 04:33:13;;;;;;;1.02;0.70;;;24.90;38.50;;;;;;5026094;28;20055;-56
2021/04/12 04:35:53;;;;;;;1.27;0.80;;;25.00;38.50;;;;;;5057711;28;20039;-58
2021/04/12 04:38:48;;;;;;;1.48;0.82;;;25.00;38.50;;;;;;5063239;28;20375;-57
2021/04/12 04:41:25;;;;;;;0.95;0.60;;;25.00;38.50;;;;;;5060632;28;20124;-60
2021/04/12 04:44:16;;;;;;;2.67;0.82;;;25.00;38.50;;;;;;5065723;28;20029;-57
2021/04/12 04:46:53;;;;;;;1.25;0.80;;;25.00;38.50;;;;;;5063209;28;20033;-58
2021/04/12 04:49:22;;;;;;;2.03;0.85;;;25.00;38.50;;;;;;5058645;28;20088;-58
2021/04/12 04:52:18;;;;;;;1.70;0.90;;;24.90;38.50;;;;;;5061475;28;20077;-55
2021/04/12 04:54:57;;;;;;;1.33;0.90;;;24.90;38.40;;;;;;5062753;28;20382;-57
2021/04/12 04:57:57;;;;;;;1.55;0.90;;;24.90;38.50;;;;;;5060369;28;20070;-59
2021/04/12 05:00:59;;;;;;;1.58;0.80;;;24.90;38.50;;;;;;5063654;28;20060;-55
2021/04/12 05:03:46;;;;;;;1.27;0.65;;;24.90;38.50;;;;;;5016832;28;20052;-55
2021/04/12 05:06:27;;;;;;;1.73;0.80;;;24.90;38.40;;;;;;5066292;28;20025;-57
2021/04/12 05:09:06;;;;;;;1.13;0.70;;;24.90;38.40;;;;;;5063728;28;20032;-57
2021/04/12 05:12:15;;;;;;;1.58;0.80;;;24.90;38.40;;;;;;5062904;28;20028;-57
2021/04/12 05:14:47;;;;;;;1.05;0.75;;;24.90;38.40;;;;;;5060048;28;20029;-55
2021/04/12 05:17:50;;;;;;;1.23;0.73;;;24.90;38.40;;;;;;5065173;28;20052;-59
2021/04/12 05:20:37;;;;;;;2.15;0.90;;;24.90;38.40;;;;;;5060270;28;20399;-58
2021/04/12 05:23:42;;;;;;;1.77;0.88;;;24.90;38.40;;;;;;5061875;28;20048;-56
2021/04/12 05:26:30;;;;;;;1.48;0.75;;;24.90;38.40;;;;;;5063937;28;20118;-56
2021/04/12 05:29:30;;;;;;;0.60;0.60;;;24.90;38.40;;;;;;5062879;28;20043;-54
2021/04/12 05:32:28;;;;;;;1.17;0.70;;;24.90;38.40;;;;;;5060002;28;20036;-56
2021/04/12 05:35:06;;;;;;;3.17;1.10;;;24.90;38.40;;;;;;5044553;28;20139;-56
2021/04/12 05:38:05;;;;;;;1.40;0.70;;;24.90;38.40;;;;;;5059829;28;20068;-56
2021/04/12 05:41:06;;;;;;;1.60;1.00;;;24.90;38.40;;;;;;5060389;28;20234;-55
2021/04/12 05:43:44;;;;;;;1.50;0.80;;;24.90;38.40;;;;;;5043635;28;20238;-54
2021/04/12 05:46:28;;;;;;;2.72;0.80;;;24.90;38.40;;;;;;5054766;28;20033;-59
2021/04/12 05:49:21;;;;;;;2.05;1.00;;;25.00;38.40;;;;;;5052495;28;20115;-58
2021/04/12 05:52:11;;;;;;;1.73;0.85;;;25.00;38.20;;;;;;5063702;28;20040;-56
2021/04/12 05:55:01;;;;;;;1.65;0.80;;;25.10;38.20;;;;;;5046159;28;20028;-56
2021/04/12 05:58:05;;;;;;;1.30;0.80;;;25.10;38.10;;;;;;5062316;28;20095;-55
2021/04/12 06:00:49;;;;;;;2.03;0.90;;;25.10;38.00;;;;;;5032519;28;20040;-55
2021/04/12 06:03:37;;;;;;;2.28;0.90;;;25.10;38.00;;;;;;5061685;28;20020;-57
2021/04/12 06:06:33;;;;;;;1.58;0.73;;;25.20;38.10;;;;;;5062248;28;20537;-59
2021/04/12 06:09:22;;;;;;;1.73;0.90;;;25.20;38.00;;;;;;5061631;28;20110;-56
2021/04/12 06:11:51;;;;;;;1.20;0.68;;;25.20;38.00;;;;;;5063830;28;20088;-56
2021/04/12 06:14:22;;;;;;;2.30;0.90;;;25.20;38.20;;;;;;5061735;28;20024;-58
2021/04/12 06:16:53;;;;;;;3.45;0.80;;;25.20;38.10;;;;;;5055440;28;20758;-56
2021/04/12 06:19:37;;;;;;;2.90;0.88;;;25.30;38.10;;;;;;5048916;28;20475;-56
2021/04/12 06:22:14;;;;;;;1.67;0.80;;;25.30;38.10;;;;;;5061126;28;20383;-55
2021/04/12 06:24:56;;;;;;;3.60;0.80;;;25.30;37.90;;;;;;5044168;28;20123;-55
2021/04/12 06:27:48;;;;;;;1.60;0.90;;;25.40;38.00;;;;;;5062717;28;20500;-53
2021/04/12 06:30:21;;;;;;;2.30;0.88;;;25.40;37.90;;;;;;5062828;28;20550;-56
2021/04/12 06:33:09;;;;;;;1.45;0.80;;;25.40;37.80;;;;;;5061274;28;20016;-58
2021/04/12 06:35:37;;;;;;;1.83;0.80;;;25.40;37.80;;;;;;5062092;28;20467;-53
2021/04/12 06:38:18;;;;;;;1.30;0.80;;;25.40;37.90;;;;;;5061548;28;20025;-55
2021/04/12 06:41:04;;;;;;;2.55;0.90;;;25.40;37.80;;;;;;5062980;28;20686;-57
2021/04/12 06:43:54;;;;;;;1.95;0.80;;;25.50;37.90;;;;;;5061068;28;20063;-57
2021/04/12 06:46:32;;;;;;;1.77;0.90;;;25.50;37.90;;;;;;5046588;28;20055;-56
2021/04/12 06:49:19;;;;;;;1.40;0.70;;;25.50;37.80;;;;;;5061920;28;20044;-54
2021/04/12 06:52:22;;;;;;;1.73;0.80;;;25.50;37.70;;;;;;5062166;28;20133;-55
2021/04/12 06:58:21;;;;;;;1.55;0.75;;;25.60;37.80;;;;;;5060904;28;20071;-55
2021/04/12 07:01:13;;;;;;;1.67;1.00;;;25.60;37.70;;;;;;5056948;28;20032;-55
2021/04/12 07:04:14;;;;;;;1.80;0.80;;;25.60;37.90;;;;;;5061809;28;20031;-58
2021/04/12 07:06:44;;;;;;;1.20;0.70;;;25.60;37.60;;;;;;5059568;28;20107;-54
2021/04/12 07:09:47;;;;;;;2.55;0.80;;;25.60;37.50;;;;;;5060840;28;20111;-58
2021/04/12 07:12:27;;;;;;;1.25;0.75;;;25.60;37.80;;;;;;5061793;28;20040;-57
2021/04/12 07:15:26;;;;;;;1.58;0.70;;;25.60;37.50;;;;;;5060200;28;20043;-54
2021/04/12 07:18:10;;;;;;;;;;;25.70;37.60;;;;;;5042174;28;20045;-56
2021/04/12 07:21:15;;;;;;;1.75;0.80;;;25.70;37.70;;;;;;5051984;28;19916;-57
2021/04/12 07:24:00;;;;;;;1.38;0.80;;;25.70;37.70;;;;;;5058724;28;20136;-55
2021/04/12 07:26:50;;;;;;;1.95;0.70;;;25.70;37.60;;;;;;5060884;28;20046;-53
2021/04/12 07:29:31;;;;;;;2.25;0.80;;;25.70;37.60;;;;;;5061282;28;20035;-56
2021/04/12 07:32:09;;;;;;;2.60;0.75;;;25.70;37.50;;;;;;5061047;28;20036;-51
2021/04/12 07:35:02;;;;;;;1.38;0.73;;;25.70;37.60;;;;;;5060585;28;20024;-53
2021/04/12 07:37:36;;;;;;;1.75;0.80;;;25.70;37.50;;;;;;5060419;28;20029;-55
2021/04/12 07:40:46;;;;;;;1.10;0.80;;;25.70;37.50;;;;;;5062439;28;20028;-56
2021/04/12 07:43:46;;;;;;;1.65;0.75;;;25.70;37.50;;;;;;5027428;28;20671;-58
2021/04/12 07:46:24;;;;;;;1.40;0.70;;;25.70;37.50;;;;;;5060083;28;20151;-57
2021/04/12 07:48:56;;;;;;;1.88;0.80;;;25.70;37.40;;;;;;5057986;28;20364;-55
2021/04/12 07:51:31;;;;;;;1.38;0.70;;;25.70;37.40;;;;;;5061977;28;20056;-58
2021/04/12 07:54:33;;;;;;;1.27;0.77;;;25.70;37.40;;;;;;5060403;28;20390;-54
2021/04/12 07:57:30;;;;;;;1.17;0.60;;;25.70;37.40;;;;;;5052551;28;20029;-57
2021/04/12 08:00:31;;;;;;;2.15;0.85;;;25.80;37.50;;;;;;5061559;28;20060;-54
2021/04/12 08:03:09;;;;;;;1.60;0.80;;;25.80;37.40;;;;;;5061089;28;20330;-56
2021/04/12 08:05:52;;;;;;;0.90;0.63;;;25.80;37.50;;;;;;5065071;28;20032;-57
2021/04/12 08:08:40;;;;;;;1.13;0.70;;;25.80;37.50;;;;;;5063224;28;20036;-58
2021/04/12 08:11:27;;;;;;;1.67;0.70;;;25.80;37.40;;;;;;5046436;28;20033;-57
2021/04/12 08:14:11;;;;;;;1.42;0.73;;;25.80;37.40;;;;;;5045226;28;20036;-57
2021/04/12 08:16:56;;;;;;;3.03;0.70;;;25.80;37.40;;;;;;5062645;28;20446;-54
2021/04/12 08:19:49;;;;;;;1.00;0.70;;;25.80;37.30;;;;;;5064097;28;20558;-57
2021/04/12 08:22:52;;;;;;;1.13;0.70;;;25.80;37.40;;;;;;5064303;28;20471;-54
2021/04/12 08:25:35;;;;;;;0.73;0.60;;;25.80;37.30;;;;;;5065024;28;20028;-53
2021/04/12 08:28:22;;;;;;;1.00;0.70;;;25.80;37.30;;;;;;5062295;28;20033;-55
2021/04/12 08:31:23;;;;;;;1.23;0.77;;;25.80;37.30;;;;;;5063413;28;20102;-54
2021/04/12 08:34:10;;;;;;;1.17;0.70;;;25.80;37.30;;;;;;5064280;28;20112;-57
2021/04/12 08:37:19;;;;;;;2.28;0.70;;;25.80;37.30;;;;;;5053330;28;20074;-59
2021/04/12 08:40:07;;;;;;;1.13;0.70;;;25.90;37.30;;;;;;5065922;28;20055;-57
2021/04/12 08:42:39;;;;;;;0.98;0.60;;;25.80;37.20;;;;;;5044993;28;20803;-57
2021/04/12 08:45:12;;;;;;;1.85;0.70;;;25.90;37.50;;;;;;5051909;28;20525;-52
2021/04/12 08:48:18;;;;;;;1.15;0.65;;;25.90;37.40;;;;;;5058957;28;20103;-53
2021/04/12 08:50:47;;;;;;;0.93;0.70;;;25.90;37.30;;;;;;5064454;28;20032;-55
2021/04/12 08:53:34;;;;;;;0.70;0.60;;;25.90;37.30;;;;;;5063930;28;20028;-56
2021/04/12 08:56:28;;;;;;;1.02;0.70;;;25.90;37.40;;;;;;5060745;28;20469;-55
2021/04/12 08:58:57;;;;;;;2.25;0.70;;;25.90;37.30;;;;;;5063372;28;20032;-54
2021/04/12 09:01:56;;;;;;;1.02;0.70;;;25.90;37.30;;;;;;5055549;28;20090;-57
2021/04/12 09:04:43;;;;;;;1.10;0.68;;;25.90;37.30;;;;;;5064169;28;20036;-55
2021/04/12 09:07:12;;;;;;;1.85;0.50;;;25.90;37.30;;;;;;5062551;28;20108;-56
2021/04/12 09:10:03;;;;;;;2.17;0.73;;;25.90;37.30;;;;;;5046668;28;20055;-58
2021/04/12 09:12:53;;;;;;;1.92;1.10;;;25.90;37.20;;;;;;5049083;28;20063;-56
2021/04/12 09:15:46;;;;;;;1.40;0.70;;;25.90;37.30;;;;;;5063938;28;20032;-55
2021/04/12 09:18:34;;;;;;;0.98;0.60;;;25.90;37.20;;;;;;5060789;28;20036;-56
2021/04/12 09:21:18;;;;;;;1.27;0.80;;;25.90;37.30;;;;;;5063687;28;20052;-55
2021/04/12 09:24:20;;;;;;;1.65;0.70;;;25.90;37.20;;;;;;5062482;28;20169;-55
2021/04/12 09:26:49;;;;;;;1.83;0.70;;;25.90;37.20;;;;;;5063054;28;20552;-56
2021/04/12 09:29:17;;;;;;;1.05;0.70;;;25.90;37.20;;;;;;5058071;28;20463;-58
2021/04/12 09:32:05;;;;;;;1.20;0.70;;;25.90;37.20;;;;;;5062791;28;20037;-55
2021/04/12 09:34:41;;;;;;;1.48;0.80;;;25.90;37.20;;;;;;5060757;28;20024;-57
2021/04/12 09:37:33;;;;;;;1.20;0.70;;;25.90;37.20;;;;;;5063021;28;20036;-56
2021/04/12 09:40:21;;;;;;;2.25;0.80;;;25.90;37.30;;;;;;5057703;28;20029;-55
2021/04/12 09:43:08;;;;;;;1.05;0.63;;;25.90;37.20;;;;;;5021521;28;20056;-57
2021/04/12 09:45:52;;;;;;;2.25;0.70;;;25.90;37.10;;;;;;5061073;28;20036;-55
2021/04/12 09:48:47;;;;;;;1.00;0.70;;;25.90;37.10;;;;;;5044606;28;20029;-55
2021/04/12 09:51:42;;;;;;;1.00;0.60;;;25.90;37.10;;;;;;5052914;28;20382;-58
2021/04/12 09:54:26;;;;;;;1.30;0.65;;;25.90;37.30;;;;;;5059232;28;20040;-55
2021/04/12 09:57:10;;;;;;;1.13;0.70;;;25.90;37.20;;;;;;5059190;28;20036;-57
2021/04/12 09:59:57;;;;;;;1.58;0.70;;;25.90;37.20;;;;;;5062626;28;20020;-57
2021/04/12 10:02:57;;;;;;;2.03;0.52;;;25.90;37.10;;;;;;5042544;28;20504;-58
2021/04/12 10:06:16;;;;;;;1.33;0.60;;;26.00;37.20;;;;;;5060480;28;20020;-53
2021/04/12 10:08:55;;;;;;;1.90;0.60;;;26.00;37.20;;;;;;5060643;28;20058;-56
2021/04/12 10:11:38;;;;;;;1.52;0.70;;;26.00;37.20;;;;;;5061877;28;20071;-57
2021/04/12 10:14:29;;;;;;;1.73;0.60;;;26.00;36.20;;;;;;5060571;28;20047;-58
2021/04/12 10:17:07;;;;;;;1.95;0.70;;;25.90;36.90;;;;;;5061390;28;20124;-59
2021/04/12 10:19:56;;;;;;;1.45;0.70;;;25.90;37.10;;;;;;5064731;28;20119;-59
2021/04/12 10:22:34;;;;;;;;;;;25.90;37.10;;;;;;5058997;28;20140;-59
2021/04/12 10:25:07;;;;;;;3.42;0.80;;;25.90;37.30;;;;;;5053691;28;20389;-58
2021/04/12 10:27:50;;;;;;;2.40;0.80;;;25.90;37.40;;;;;;5058549;28;20080;-58
2021/04/12 10:30:25;;;;;;;1.38;0.60;;;25.90;37.40;;;;;;5062039;28;20573;-57
2021/04/12 10:32:53;;;;;;;1.05;0.60;;;25.90;37.40;;;;;;5062023;28;20109;-60
2021/04/12 10:35:30;;;;;;;1.60;0.88;;;25.90;37.30;;;;;;5063017;28;20028;-57
2021/04/12 10:38:23;;;;;;;1.95;0.70;;;25.90;37.30;;;;;;5056063;28;20028;-57
2021/04/12 10:41:00;;;;;;;1.17;0.60;;;25.90;37.30;;;;;;5057405;28;20929;-54
2021/04/12 10:43:34;;;;;;;1.38;0.75;;;25.90;37.30;;;;;;5061869;28;20116;-56
2021/04/12 10:46:22;;;;;;;1.30;0.70;;;26.00;37.40;;;;;;5054897;28;20033;-55
2021/04/12 10:49:12;;;;;;;1.58;0.80;;;26.00;37.00;;;;;;5064502;28;20044;-59
2021/04/12 10:52:11;;;;;;;2.38;0.80;;;25.90;36.30;;;;;;5063958;28;20032;-59
2021/04/12 10:54:49;;;;;;;1.98;0.90;;;25.90;35.70;;;;;;5059356;28;20051;-57
2021/04/12 10:57:20;;;;;;;1.45;0.75;;;25.80;35.80;;;;;;5037540;28;20039;-56
2021/04/12 11:00:07;;;;;;;1.45;0.73;;;25.80;35.70;;;;;;5060425;28;20032;-58
2021/04/12 11:02:50;;;;;;;1.35;0.70;;;25.80;35.30;;;;;;5059610;28;20119;-59
2021/04/12 11:05:21;;;;;;;1.55;0.80;;;25.70;35.30;;;;;;5053127;28;20040;-60
2021/04/12 11:08:05;;;;;;;1.17;0.70;;;25.70;35.20;;;;;;5061861;28;20369;-58
2021/04/12 11:10:51;;;;;;;1.35;0.88;;;25.70;35.00;;;;;;5060198;28;20376;-60
2021/04/12 11:13:39;;;;;;;1.77;1.05;;;25.60;35.40;;;;;;5053405;28;20021;-60
2021/04/12 11:16:42;;;;;;;9.90;9.10;;;25.60;35.40;;;;;;5056278;28;20036;-58
2021/04/12 11:19:35;;;;;;;18.30;16.77;;;25.50;35.70;;;;;;5042873;28;20043;-58
2021/04/12 11:22:22;;;;;;;17.63;16.20;;;25.40;35.00;;;;;;5060335;28;20502;-61
2021/04/12 11:25:17;;;;;;;6.63;6.03;;;25.40;35.20;;;;;;5053160;28;20368;-59
2021/04/12 11:28:14;;;;;;;3.50;3.20;;;25.40;35.10;;;;;;5053798;28;20092;-58
2021/04/12 11:31:06;;;;;;;3.72;2.47;;;25.40;35.20;;;;;;4990367;28;20540;-59
2021/04/12 11:33:44;;;;;;;3.15;2.58;;;25.40;35.30;;;;;;5058905;28;20159;-60
2021/04/12 11:36:29;;;;;;;4.03;2.60;;;25.40;35.00;;;;;;5062270;28;20032;-59
2021/04/12 11:39:17;;;;;;;4.22;2.20;;;25.30;34.70;;;;;;5054442;28;20028;-57
2021/04/12 11:41:45;;;;;;;3.70;2.10;;;25.30;34.30;;;;;;5067248;28;20380;-62
2021/04/12 11:44:16;;;;;;;3.08;2.42;;;25.20;35.00;;;;;;5062518;28;20048;-59
2021/04/12 11:47:00;;;;;;;3.13;2.40;;;25.20;34.60;;;;;;5063040;28;20033;-58
2021/04/12 11:49:51;;;;;;;3.47;2.30;;;25.10;34.70;;;;;;5068262;28;20047;-54
2021/04/12 11:52:29;;;;;;;3.35;2.03;;;25.10;34.80;;;;;;5063479;28;20554;-58
2021/04/12 11:55:15;;;;;;;2.60;2.10;;;25.10;34.90;;;;;;5066454;28;20397;-61
2021/04/12 11:58:06;;;;;;;2.30;2.05;;;25.10;34.90;;;;;;5047223;28;20215;-56
2021/04/12 12:00:50;;;;;;;2.25;1.90;;;25.10;34.80;;;;;;5063439;28;20039;-59
2021/04/12 12:03:40;;;;;;;2.97;1.88;;;25.10;34.60;;;;;;5057802;28;20873;-57
2021/04/12 12:06:30;;;;;;;3.00;1.75;;;25.00;34.10;;;;;;5056509;28;20706;-60
2021/04/12 12:09:07;;;;;;;2.80;2.00;;;25.00;34.90;;;;;;5058859;28;20418;-60
2021/04/12 12:11:44;;;;;;;3.78;2.70;;;25.00;34.90;;;;;;5047068;28;20025;-60
2021/04/12 12:14:19;;;;;;;3.00;2.20;;;25.00;34.20;;;;;;5065733;28;20204;-60
2021/04/12 12:16:45;;;;;;;3.47;2.10;;;24.90;34.50;;;;;;5048570;28;20024;-60
2021/04/12 12:19:23;;;;;;;3.15;1.90;;;24.90;34.70;;;;;;5067173;28;20107;-60
2021/04/12 12:22:00;;;;;;;2.50;1.50;;;24.90;34.30;;;;;;5066703;28;20032;-59
2021/04/12 12:24:37;;;;;;;2.45;1.73;;;24.90;34.80;;;;;;5066065;28;20024;-59
2021/04/12 12:27:11;;;;;;;2.58;1.70;;;24.90;34.50;;;;;;5066473;28;20032;-60
2021/04/12 12:29:39;;;;;;;2.30;1.50;;;25.00;34.70;;;;;;5066233;28;20172;-60
2021/04/12 12:32:14;;;;;;;1.98;1.50;;;24.90;34.10;;;;;;5065450;28;20041;-60
2021/04/12 12:34:46;;;;;;;2.50;1.50;;;24.80;34.10;;;;;;5065682;28;20032;-60
2021/04/12 12:37:18;;;;;;;3.50;1.40;;;24.80;34.00;;;;;;5059586;28;20487;-57
2021/04/12 12:39:48;;;;;;;3.83;1.65;;;24.80;34.40;;;;;;5066273;28;20036;-60
2021/04/12 12:42:35;;;;;;;2.30;1.60;;;24.80;33.90;;;;;;5066375;28;20028;-60
2021/04/12 12:45:15;;;;;;;2.72;1.60;;;24.80;34.60;;;;;;5059357;28;20122;-60
2021/04/12 12:47:47;;;;;;;1.77;1.25;;;24.90;34.20;;;;;;5049099;28;20034;-59
2021/04/12 12:50:21;;;;;;;2.10;1.50;;;24.90;34.10;;;;;;5063443;28;20032;-58
2021/04/12 12:52:58;;;;;;;2.70;1.35;;;24.80;34.00;;;;;;5058155;28;20184;-60
2021/04/12 12:55:46;;;;;;;3.08;1.40;;;24.90;33.90;;;;;;5063329;28;20024;-60
2021/04/12 12:58:19;;;;;;;2.17;1.30;;;24.80;34.00;;;;;;5064403;28;20489;-60
2021/04/12 13:00:47;;;;;;;2.63;1.50;;;24.80;33.70;;;;;;5062948;28;20037;-59
2021/04/12 13:03:27;;;;;;;2.05;1.23;;;24.80;33.40;;;;;;5060415;28;20107;-60
2021/04/12 13:05:55;;;;;;;1.60;1.10;;;24.80;33.10;;;;;;5071183;28;20123;-57
2021/04/12 13:08:29;;;;;;;1.52;1.13;;;24.80;33.40;;;;;;5067682;28;20174;-60
2021/04/12 13:10:55;;;;;;;1.95;1.20;;;24.80;34.00;;;;;;5066737;28;20040;-58
2021/04/12 13:13:28;;;;;;;2.53;1.50;;;24.80;33.50;;;;;;5066015;28;20093;-60
2021/04/12 13:16:16;;;;;;;2.42;1.40;;;24.70;33.00;;;;;;5065859;28;20044;-59
2021/04/12 13:18:52;;;;;;;1.75;1.30;;;24.70;33.50;;;;;;5065037;28;20032;-56
2021/04/12 13:21:24;;;;;;;2.83;1.45;;;24.70;33.50;;;;;;5066510;28;20762;-58
2021/04/12 13:24:06;;;;;;;4.07;1.30;;;24.70;33.40;;;;;;5059738;28;20031;-53
2021/04/12 13:26:42;;;;;;;1.67;1.20;;;24.70;33.90;;;;;;5046532;28;20025;-58
2021/04/12 13:29:17;;;;;;;3.75;1.40;;;24.70;33.30;;;;;;5062550;28;20109;-58
2021/04/12 13:31:50;;;;;;;1.90;1.30;;;24.60;33.10;;;;;;5064069;28;20403;-58
2021/04/12 13:34:31;;;;;;;2.38;1.50;;;24.60;33.10;;;;;;5059337;28;20029;-58
2021/04/12 13:37:09;;;;;;;2.35;1.30;;;24.60;33.00;;;;;;5061952;28;20031;-59
2021/04/12 13:40:09;;;;;;;2.65;1.42;;;24.60;33.10;;;;;;5063512;28;20041;-59
2021/04/12 13:42:47;;;;;;;2.53;1.50;;;24.60;32.80;;;;;;5032909;28;20327;-59
2021/04/12 13:45:14;;;;;;;2.80;1.73;;;24.50;33.00;;;;;;5056372;28;20044;-59
2021/04/12 13:47:46;;;;;;;2.33;1.55;;;24.50;32.90;;;;;;5062418;28;20033;-59
2021/04/12 13:50:19;;;;;;;1.35;1.15;;;24.50;33.20;;;;;;5062718;28;20423;-58
2021/04/12 13:53:06;;;;;;;1.52;1.10;;;24.50;33.40;;;;;;5061675;28;20188;-59
2021/04/12 13:55:41;;;;;;;3.35;1.65;;;24.50;33.50;;;;;;5049762;28;20361;-59
2021/04/12 13:58:10;;;;;;;2.00;1.13;;;24.50;32.70;;;;;;5056563;28;20129;-59
2021/04/12 14:00:54;;;;;;;2.03;1.20;;;24.50;32.80;;;;;;5040602;28;20032;-58
2021/04/12 14:03:29;;;;;;;2.15;1.20;;;24.50;33.50;;;;;;5058751;28;20056;-58
2021/04/12 14:06:14;;;;;;;2.00;1.40;;;24.50;33.10;;;;;;5054349;28;20043;-58
2021/04/12 14:08:46;;;;;;;2.08;1.30;;;24.50;33.20;;;;;;5059640;28;20123;-57
2021/04/12 14:11:29;;;;;;;3.10;1.38;;;24.50;33.30;;;;;;5059955;28;20547;-58
2021/04/12 14:14:17;;;;;;;2.60;1.30;;;24.40;33.30;;;;;;5045735;28;20059;-58
2021/04/12 14:16:43;;;;;;;1.63;1.20;;;24.40;33.00;;;;;;5046882;28;20051;-59
2021/04/12 14:19:29;;;;;;;2.20;1.35;;;24.40;33.90;;;;;;5062364;28;20080;-55
2021/04/12 14:22:18;;;;;;;1.98;1.30;;;24.40;33.30;;;;;;5060754;28;20021;-57